Estación Meteorológica Peña el Pijo (Robertgarden) [ 07/19/18 09:43:15 CEST ]

Fecha Hora Presion(HPa) Temp (°C) Humedad % Rocio (°C) Viento ( m/s) Direccion Lluvia 1Hora(mm) Lluvia 24H(mm) LLuvia Total(mm)
2017-Dec-21 01:01:34 1019.900 -1.2 76 -4.9         21.23
2017-Dec-21 02:07:03 1020.100 -1.6 77 -5.1         21.23
2017-Dec-21 03:01:42 1020.300 -2.4 80 -5.4         21.23
2017-Dec-21 04:01:51 1020.600 -2.2 81 -5.0         21.23
2017-Dec-21 05:01:50 1020.900 -2.8 82 -5.5         21.23
2017-Dec-21 06:01:40 1021.100 -3.2 82 -5.9         21.23
2017-Dec-21 07:01:50 1021.400 -2.8 83 -5.3         21.23
2017-Dec-21 08:01:52 1021.700 -1.7 84 -4.1         21.23
2017-Dec-21 09:01:53 1022.300 -2.2 84 -4.6         21.23
2017-Dec-21 10:01:48 1023.000 0.1 85 -2.1         21.23
2017-Dec-21 11:01:38 1023.600 3.4 84 0.9         21.23
2017-Dec-21 12:01:55 1023.000 8.7 76 4.7         21.23
2017-Dec-21 13:01:45 1022.300 11.1 54 2.1         21.23
2017-Dec-21 14:01:50 1022.200 13.1 48 2.3         21.23
2017-Dec-21 15:01:48 1021.900 13.1 46 1.7 0.9 NE     21.23
2017-Dec-21 16:01:50 1021.800 12.9 45 1.2         21.23
2017-Dec-21 17:01:54 1022.300 10.4 50 0.5         21.23
2017-Dec-21 18:01:51 1022.600 7.1 57 -0.9         21.23
2017-Dec-21 19:01:38 1023.300 4.6 64 -1.7         21.23
2017-Dec-21 20:01:38 1024.000 2.3 69 -2.8         21.23
2017-Dec-21 21:01:43 1024.300 1.3 72 -3.2         21.23
2017-Dec-21 22:01:43 1024.500 0.7 76 -3.1         21.23
2017-Dec-21 23:01:44 1024.500 0.4 78 -3.0         21.23

Temperatura Máxima:13°    Temperatura Mínima:-3°
Presión Máxima:1024.500 Hpa    Presión Mínima:1019.900 Hpa


Volver